Time;durP1;ratioP1;P1;durP2;ratioP2;P2;SDS_P1;SDS_P2;PMS_P1;PMS_P2;Temp;Humidity;BMP_temperature;BMP_pressure;BME280_temperature;BME280_humidity;BME280_pressure;Samples;Min_cycle;Max_cycle;Signal;HPM_P1;HPM_P2
2024/01/25 00:00:18;;;;;;;14.02;4.00;;;16.00;65.80;;;;;;5150502;27;45162;-52
2024/01/25 00:02:45;;;;;;;16.27;3.40;;;15.90;65.90;;;;;;5148849;27;45258;-52
2024/01/25 00:05:12;;;;;;;12.73;3.25;;;15.90;65.90;;;;;;5150558;27;45283;-52
2024/01/25 00:07:47;;;;;;;13.45;3.30;;;15.90;66.00;;;;;;5148881;27;45384;-52
2024/01/25 00:10:14;;;;;;;11.30;3.17;;;15.90;66.10;;;;;;5149566;27;45222;-52
2024/01/25 00:12:41;;;;;;;16.60;3.70;;;15.90;66.00;;;;;;5152757;27;46547;-52
2024/01/25 00:15:09;;;;;;;11.85;3.17;;;15.90;66.10;;;;;;5150147;27;45217;-52
2024/01/25 00:17:36;;;;;;;11.20;3.30;;;15.90;66.10;;;;;;5149206;27;45451;-52
2024/01/25 00:20:02;;;;;;;10.95;3.28;;;15.90;66.10;;;;;;5150468;27;45224;-52
2024/01/25 00:22:29;;;;;;;10.73;3.55;;;15.90;66.10;;;;;;5153957;27;46925;-52
2024/01/25 00:24:58;;;;;;;15.68;3.90;;;15.90;66.10;;;;;;5147360;27;45242;-52
2024/01/25 00:27:25;;;;;;;13.73;3.50;;;16.00;66.10;;;;;;5149968;27;45161;-52
2024/01/25 00:29:52;;;;;;;15.50;3.95;;;16.00;66.10;;;;;;5151159;27;45274;-52
2024/01/25 00:32:19;;;;;;;14.60;3.33;;;16.00;66.00;;;;;;5146792;27;46700;-52
2024/01/25 00:34:46;;;;;;;11.85;3.22;;;16.00;66.00;;;;;;5150689;27;45386;-52
2024/01/25 00:37:13;;;;;;;12.43;3.60;;;16.00;65.90;;;;;;5150661;27;45263;-52
2024/01/25 00:39:40;;;;;;;13.65;4.00;;;16.00;66.00;;;;;;5150109;27;45663;-52
2024/01/25 00:42:13;;;;;;;12.40;3.10;;;16.00;65.90;;;;;;5152568;27;46532;-52
2024/01/25 00:44:40;;;;;;;14.07;3.10;;;16.00;65.90;;;;;;5147286;27;45642;-52
2024/01/25 00:47:07;;;;;;;16.13;4.50;;;16.00;65.90;;;;;;5149322;27;45198;-52
2024/01/25 00:49:34;;;;;;;12.32;3.08;;;16.00;65.90;;;;;;5151406;27;45373;-52
2024/01/25 00:52:04;;;;;;;11.95;3.60;;;16.00;66.00;;;;;;5151775;27;45253;-52
2024/01/25 00:54:31;;;;;;;18.48;3.50;;;16.00;66.10;;;;;;5152219;27;45150;-52
2024/01/25 00:56:58;;;;;;;15.90;3.88;;;16.00;66.20;;;;;;5153832;27;45286;-52
2024/01/25 00:59:27;;;;;;;13.75;3.53;;;16.00;66.10;;;;;;5150581;27;45127;-53
2024/01/25 01:01:56;;;;;;;17.08;3.50;;;16.00;66.10;;;;;;5151796;27;44989;-52
2024/01/25 01:04:23;;;;;;;11.77;3.58;;;16.00;66.10;;;;;;5148294;27;45253;-52
2024/01/25 01:06:50;;;;;;;17.95;4.13;;;15.90;66.00;;;;;;5149866;27;44698;-52
2024/01/25 01:09:17;;;;;;;17.45;3.85;;;15.90;66.00;;;;;;5148632;27;45106;-52
2024/01/25 01:11:44;;;;;;;12.02;3.55;;;15.90;66.10;;;;;;5150302;27;45013;-52
2024/01/25 01:14:11;;;;;;;13.63;3.38;;;15.90;65.90;;;;;;5150984;27;44828;-52
2024/01/25 01:16:39;;;;;;;12.27;3.10;;;16.00;66.00;;;;;;5152023;27;44763;-52
2024/01/25 01:19:07;;;;;;;12.85;3.30;;;16.00;66.10;;;;;;5149898;27;45550;-52
2024/01/25 01:21:34;;;;;;;14.00;3.58;;;16.00;65.90;;;;;;5146449;27;48713;-52
2024/01/25 01:24:01;;;;;;;12.65;3.20;;;16.00;65.90;;;;;;5153904;27;45196;-52
2024/01/25 01:26:28;;;;;;;12.85;2.95;;;16.00;65.90;;;;;;5152753;27;45431;-52
2024/01/25 01:28:55;;;;;;;20.00;3.70;;;16.00;65.70;;;;;;5156717;27;45152;-52
2024/01/25 01:31:22;;;;;;;18.55;3.85;;;16.00;65.90;;;;;;5151447;27;46986;-52
2024/01/25 01:33:50;;;;;;;10.88;2.67;;;16.00;65.90;;;;;;5149961;27;45199;-52
2024/01/25 01:36:16;;;;;;;15.30;3.75;;;16.00;65.60;;;;;;5149896;27;45155;-52
2024/01/25 01:38:43;;;;;;;13.07;3.03;;;16.00;65.30;;;;;;5152432;27;45149;-52
2024/01/25 01:41:12;;;;;;;12.88;3.40;;;15.90;65.20;;;;;;5150304;27;47472;-52
2024/01/25 01:43:39;;;;;;;16.27;3.80;;;16.00;65.20;;;;;;5149372;27;45191;-52
2024/01/25 01:46:10;;;;;;;14.75;3.40;;;15.90;65.10;;;;;;5147395;27;44704;-52
2024/01/25 01:48:37;;;;;;;18.55;3.47;;;15.90;64.90;;;;;;5154083;27;45202;-52
2024/01/25 01:51:06;;;;;;;12.90;3.25;;;15.90;64.90;;;;;;5152760;27;47419;-52
2024/01/25 01:53:34;;;;;;;15.75;3.78;;;15.90;65.00;;;;;;5153559;27;45325;-52
2024/01/25 01:56:01;;;;;;;17.23;4.43;;;15.90;64.90;;;;;;5152176;27;45335;-52
2024/01/25 01:58:28;;;;;;;15.13;3.47;;;15.90;64.80;;;;;;5152238;27;45362;-52
2024/01/25 02:00:59;;;;;;;15.40;4.00;;;15.90;64.70;;;;;;5152367;27;47426;-52
2024/01/25 02:03:25;;;;;;;15.55;4.10;;;15.90;64.70;;;;;;5151325;27;45215;-52
2024/01/25 02:05:52;;;;;;;15.63;4.07;;;15.90;64.60;;;;;;5154956;27;45221;-52
2024/01/25 02:08:20;;;;;;;15.40;3.80;;;15.90;64.60;;;;;;5150106;27;45217;-52
2024/01/25 02:10:47;;;;;;;14.48;3.90;;;15.90;64.40;;;;;;5150857;27;47992;-52
2024/01/25 02:13:14;;;;;;;16.10;3.92;;;15.90;64.30;;;;;;5151095;27;45153;-52
2024/01/25 02:15:41;;;;;;;16.58;3.50;;;15.90;64.20;;;;;;5150782;27;45172;-52
2024/01/25 02:18:07;;;;;;;14.75;3.70;;;15.90;64.20;;;;;;5152018;27;45250;-52
2024/01/25 02:20:34;;;;;;;15.15;3.65;;;15.90;64.00;;;;;;5151709;27;45330;-52
2024/01/25 02:23:02;;;;;;;14.80;4.18;;;15.90;64.00;;;;;;5151642;27;46087;-52
2024/01/25 02:25:29;;;;;;;16.02;3.72;;;15.90;64.00;;;;;;5153071;27;45310;-52
2024/01/25 02:27:56;;;;;;;17.58;3.67;;;15.90;63.90;;;;;;5151774;27;45163;-52
2024/01/25 02:30:22;;;;;;;10.30;3.22;;;15.90;63.80;;;;;;5150426;27;46524;-52
2024/01/25 02:32:49;;;;;;;15.55;3.83;;;15.90;63.80;;;;;;5152146;27;45212;-52
2024/01/25 02:35:16;;;;;;;11.65;3.33;;;15.90;63.80;;;;;;5154521;27;45367;-52
2024/01/25 02:37:43;;;;;;;17.52;3.72;;;15.90;63.90;;;;;;5155544;27;45701;-52
2024/01/25 02:40:12;;;;;;;16.38;3.65;;;15.90;63.90;;;;;;5152415;27;45413;-52
2024/01/25 02:42:39;;;;;;;17.27;3.85;;;15.90;63.90;;;;;;5151352;27;45822;-52
2024/01/25 02:45:06;;;;;;;16.55;4.15;;;15.90;63.90;;;;;;5152756;27;45279;-52
2024/01/25 02:47:33;;;;;;;14.98;4.35;;;15.90;64.00;;;;;;5152628;27;45421;-52
2024/01/25 02:50:00;;;;;;;16.90;3.92;;;15.80;63.80;;;;;;5153560;27;46540;-52
2024/01/25 02:52:26;;;;;;;12.90;3.78;;;15.80;63.80;;;;;;5154117;27;45262;-52
2024/01/25 02:54:53;;;;;;;16.85;4.18;;;15.80;63.80;;;;;;5154313;27;44675;-52
2024/01/25 02:57:21;;;;;;;15.35;3.70;;;15.80;63.80;;;;;;5150204;27;45594;-52
2024/01/25 02:59:48;;;;;;;14.32;3.40;;;15.80;63.60;;;;;;5153500;27;45455;-52
2024/01/25 03:02:16;;;;;;;15.30;3.92;;;15.90;63.50;;;;;;5152163;27;45224;-52
2024/01/25 03:04:43;;;;;;;18.75;3.60;;;15.90;63.50;;;;;;5149751;27;45156;-52
2024/01/25 03:07:10;;;;;;;14.50;3.85;;;15.90;63.40;;;;;;5152286;27;44913;-52
2024/01/25 03:09:36;;;;;;;18.30;3.95;;;15.90;63.30;;;;;;5149518;27;46419;-52
2024/01/25 03:12:03;;;;;;;15.63;3.92;;;15.90;63.10;;;;;;5153890;27;45163;-52
2024/01/25 03:14:31;;;;;;;15.43;3.72;;;15.90;63.10;;;;;;5158236;27;45246;-52
2024/01/25 03:16:57;;;;;;;15.27;3.55;;;15.90;63.00;;;;;;5151324;27;45218;-52
2024/01/25 03:19:26;;;;;;;15.55;3.58;;;15.90;62.90;;;;;;5149574;27;46963;-52
2024/01/25 03:21:54;;;;;;;13.65;3.63;;;15.90;62.80;;;;;;5153305;27;46131;-52
2024/01/25 03:24:21;;;;;;;18.58;3.90;;;15.90;62.90;;;;;;5152718;27;45232;-52
2024/01/25 03:26:48;;;;;;;10.07;3.35;;;15.90;62.90;;;;;;5151116;27;45244;-52
2024/01/25 03:29:15;;;;;;;12.88;3.50;;;15.90;62.90;;;;;;5154489;27;45424;-52
2024/01/25 03:31:43;;;;;;;15.38;4.28;;;15.90;62.90;;;;;;5156275;27;45341;-52
2024/01/25 03:34:10;;;;;;;20.38;4.30;;;15.80;63.00;;;;;;5153312;27;45206;-52
2024/01/25 03:36:36;;;;;;;19.30;4.22;;;15.80;62.90;;;;;;5151966;27;45400;-52
2024/01/25 03:39:03;;;;;;;14.02;3.72;;;15.80;62.80;;;;;;5149387;27;46339;-52
2024/01/25 03:41:30;;;;;;;17.77;4.03;;;15.80;62.90;;;;;;5155243;27;45222;-52
2024/01/25 03:43:57;;;;;;;18.90;4.25;;;15.80;62.90;;;;;;5153541;27;44740;-52
2024/01/25 03:46:24;;;;;;;14.23;3.90;;;15.80;62.90;;;;;;5150308;27;45466;-52
2024/01/25 03:48:54;;;;;;;17.00;4.50;;;15.80;62.80;;;;;;5155565;27;47024;-52
2024/01/25 03:51:21;;;;;;;13.80;3.55;;;15.80;62.60;;;;;;5152385;27;45376;-52
2024/01/25 03:53:47;;;;;;;13.90;3.47;;;15.80;62.60;;;;;;5151810;27;45298;-52
2024/01/25 03:56:17;;;;;;;12.02;3.33;;;15.80;62.40;;;;;;5150294;27;45177;-52
2024/01/25 03:58:43;;;;;;;12.50;4.05;;;15.90;62.40;;;;;;5153852;27;45210;-52
2024/01/25 04:01:10;;;;;;;17.95;4.03;;;15.80;62.10;;;;;;5148568;27;45504;-52
2024/01/25 04:03:37;;;;;;;13.65;3.67;;;15.90;62.20;;;;;;5154057;27;44673;-52
2024/01/25 04:06:06;;;;;;;16.55;4.05;;;15.90;62.10;;;;;;5152980;27;45168;-52
2024/01/25 04:08:32;;;;;;;18.42;4.45;;;15.90;62.10;;;;;;5153842;27;45176;-52
2024/01/25 04:10:59;;;;;;;12.80;3.38;;;15.90;62.00;;;;;;5151677;27;45244;-52
2024/01/25 04:13:26;;;;;;;17.65;3.78;;;15.90;61.80;;;;;;5151446;27;45248;-52
2024/01/25 04:15:52;;;;;;;16.40;4.25;;;15.90;61.80;;;;;;5150244;27;45333;-52
2024/01/25 04:18:19;;;;;;;16.15;3.75;;;15.80;61.70;;;;;;5149294;27;45199;-52
2024/01/25 04:20:46;;;;;;;12.77;3.35;;;15.80;61.70;;;;;;5152875;27;45101;-52
2024/01/25 04:23:14;;;;;;;16.70;4.07;;;15.80;61.60;;;;;;5149582;27;45168;-52
2024/01/25 04:25:41;;;;;;;13.50;4.43;;;15.80;61.70;;;;;;5149315;27;45438;-52
2024/01/25 04:28:08;;;;;;;17.23;3.83;;;15.80;61.70;;;;;;5151287;27;47594;-52
2024/01/25 04:30:35;;;;;;;16.38;4.00;;;15.80;61.60;;;;;;5150189;27;46181;-52
2024/01/25 04:33:02;;;;;;;15.15;4.18;;;15.70;61.40;;;;;;5149752;27;44638;-52
2024/01/25 04:35:31;;;;;;;14.90;3.95;;;15.80;61.50;;;;;;5150242;27;44910;-52
2024/01/25 04:37:58;;;;;;;17.88;4.13;;;15.70;61.50;;;;;;5152333;27;47427;-52
2024/01/25 04:40:26;;;;;;;16.20;3.95;;;15.70;61.40;;;;;;5148008;27;45071;-52
2024/01/25 04:42:53;;;;;;;15.85;3.90;;;15.80;61.40;;;;;;5149009;27;45296;-52
2024/01/25 04:45:19;;;;;;;13.13;3.50;;;15.80;61.30;;;;;;5149139;27;45254;-52
2024/01/25 04:47:46;;;;;;;12.75;3.50;;;15.80;61.20;;;;;;5148485;27;46723;-52
2024/01/25 04:50:13;;;;;;;15.15;4.05;;;15.80;61.00;;;;;;5152233;27;45196;-52
2024/01/25 04:52:39;;;;;;;13.25;3.10;;;15.80;60.70;;;;;;5149085;27;45182;-52
2024/01/25 04:55:07;;;;;;;15.23;4.00;;;15.90;60.80;;;;;;5149706;27;44789;-52
2024/01/25 04:57:35;;;;;;;15.18;3.33;;;15.80;60.60;;;;;;5150582;27;46963;-52
2024/01/25 05:00:02;;;;;;;13.68;3.67;;;15.80;60.50;;;;;;5155146;27;45169;-52
2024/01/25 05:02:29;;;;;;;18.40;3.65;;;15.90;60.60;;;;;;5147557;27;45149;-52
2024/01/25 05:04:55;;;;;;;12.48;3.67;;;15.90;60.40;;;;;;5152883;27;45194;-52
2024/01/25 05:07:22;;;;;;;14.30;3.17;;;15.80;60.40;;;;;;5149593;27;45200;-52
2024/01/25 05:09:49;;;;;;;16.20;3.92;;;15.80;60.40;;;;;;5148319;27;45281;-52
2024/01/25 05:12:16;;;;;;;18.13;4.70;;;15.80;60.50;;;;;;5151845;27;45220;-52
2024/01/25 05:14:44;;;;;;;15.40;3.55;;;15.80;60.50;;;;;;5153964;27;45234;-52
2024/01/25 05:17:11;;;;;;;19.17;4.35;;;15.80;60.50;;;;;;5153207;27;46530;-52
2024/01/25 05:19:37;;;;;;;17.55;4.18;;;15.70;60.40;;;;;;5149113;27;45165;-52
2024/01/25 05:22:06;;;;;;;15.05;3.85;;;15.70;60.50;;;;;;5152773;27;45224;-52
2024/01/25 05:24:33;;;;;;;13.77;3.58;;;15.70;60.50;;;;;;5150702;27;45641;-52
2024/01/25 05:27:00;;;;;;;13.23;3.50;;;15.70;60.40;;;;;;5155523;27;47103;-52
2024/01/25 05:29:26;;;;;;;14.90;3.30;;;15.60;60.20;;;;;;5155345;27;45095;-52
2024/01/25 05:31:55;;;;;;;15.45;3.50;;;15.70;60.10;;;;;;5155501;27;45153;-52
2024/01/25 05:34:21;;;;;;;15.18;3.28;;;15.60;60.10;;;;;;5152298;27;45164;-52
2024/01/25 05:36:48;;;;;;;14.20;3.15;;;15.70;60.00;;;;;;5151857;27;45198;-52
2024/01/25 05:39:16;;;;;;;16.27;4.05;;;15.70;59.80;;;;;;5150878;27;46401;-52
2024/01/25 05:41:44;;;;;;;13.10;3.92;;;15.70;59.70;;;;;;5154944;27;45352;-52
2024/01/25 05:44:12;;;;;;;16.48;4.20;;;15.70;59.60;;;;;;5153702;27;45307;-52
2024/01/25 05:46:39;;;;;;;14.07;3.47;;;15.70;59.60;;;;;;5154261;27;45418;-52
2024/01/25 05:49:07;;;;;;;15.05;4.32;;;15.70;59.50;;;;;;5151024;27;45169;-52
2024/01/25 05:51:33;;;;;;;15.75;4.60;;;15.70;59.40;;;;;;5153398;27;45104;-52
2024/01/25 05:54:00;;;;;;;16.52;4.20;;;15.70;59.50;;;;;;5153279;27;45201;-52
2024/01/25 05:56:27;;;;;;;11.75;3.40;;;15.70;59.20;;;;;;5152926;27;45383;-52
2024/01/25 05:58:54;;;;;;;16.35;3.90;;;15.70;59.00;;;;;;5156444;27;45216;-52
2024/01/25 06:01:20;;;;;;;16.02;4.00;;;15.70;59.00;;;;;;5153407;27;45353;-52
2024/01/25 06:03:47;;;;;;;13.38;3.90;;;15.70;59.10;;;;;;5153327;27;45414;-52
2024/01/25 06:06:15;;;;;;;14.63;4.20;;;15.70;59.10;;;;;;5149450;27;45314;-52
2024/01/25 06:08:42;;;;;;;14.65;3.40;;;15.70;59.10;;;;;;5153507;27;45191;-52
2024/01/25 06:11:09;;;;;;;16.15;4.18;;;15.60;59.20;;;;;;5154138;27;44645;-52
2024/01/25 06:13:36;;;;;;;14.27;4.03;;;15.60;59.30;;;;;;5156629;27;45294;-52
2024/01/25 06:16:03;;;;;;;16.55;4.30;;;15.60;59.20;;;;;;5153943;27;46182;-52
2024/01/25 06:18:29;;;;;;;13.77;4.13;;;15.60;59.20;;;;;;5152347;27;45163;-52
2024/01/25 06:20:56;;;;;;;15.77;4.03;;;15.60;60.30;;;;;;5153948;27;45333;-52
2024/01/25 06:23:24;;;;;;;15.88;4.18;;;15.60;59.20;;;;;;5151816;27;45405;-52
2024/01/25 06:25:51;;;;;;;16.15;3.92;;;15.60;59.00;;;;;;5152786;27;46454;-52
2024/01/25 06:28:19;;;;;;;15.82;3.78;;;15.50;59.10;;;;;;5152187;27;45232;-52
2024/01/25 06:30:46;;;;;;;11.00;3.30;;;15.60;58.80;;;;;;5149994;27;45214;-52
2024/01/25 06:33:12;;;;;;;16.25;3.40;;;15.60;59.00;;;;;;5152024;27;44759;-52
2024/01/25 06:35:40;;;;;;;11.00;3.42;;;15.60;59.20;;;;;;5153719;27;45230;-52
2024/01/25 06:38:06;;;;;;;12.60;3.53;;;15.60;59.90;;;;;;5152456;27;45150;-52
2024/01/25 06:40:35;;;;;;;12.10;3.78;;;15.60;60.20;;;;;;5150972;27;45230;-52
2024/01/25 06:43:01;;;;;;;12.45;3.63;;;15.60;61.70;;;;;;5153883;27;45078;-52
2024/01/25 06:45:28;;;;;;;13.43;3.35;;;15.60;60.60;;;;;;5152741;27;45428;-52
2024/01/25 06:47:55;;;;;;;16.65;3.67;;;15.60;60.20;;;;;;5149415;27;45137;-52
2024/01/25 06:50:21;;;;;;;14.35;3.85;;;15.60;59.90;;;;;;5152043;27;45478;-52
2024/01/25 06:52:48;;;;;;;13.95;3.33;;;15.60;59.80;;;;;;5150788;27;45104;-52
2024/01/25 06:55:15;;;;;;;11.63;3.72;;;15.60;60.80;;;;;;5150769;27;46035;-52
2024/01/25 06:57:44;;;;;;;14.60;3.78;;;15.60;59.30;;;;;;5149410;27;45166;-52
2024/01/25 07:00:14;;;;;;;17.48;4.35;;;15.60;58.80;;;;;;5152659;27;45324;-52
2024/01/25 07:02:41;;;;;;;12.20;3.45;;;15.60;59.00;;;;;;5153131;27;45201;-52
2024/01/25 07:05:08;;;;;;;19.48;4.13;;;15.60;58.70;;;;;;5156031;27;47033;-52
2024/01/25 07:07:35;;;;;;;12.68;3.25;;;15.60;58.60;;;;;;5149837;27;45348;-52
2024/01/25 07:10:01;;;;;;;14.57;3.85;;;15.60;58.40;;;;;;5152085;27;45414;-52
2024/01/25 07:12:29;;;;;;;16.27;4.07;;;15.60;58.20;;;;;;5151394;27;45480;-52
2024/01/25 07:14:58;;;;;;;14.10;3.63;;;15.60;58.20;;;;;;5149067;27;45441;-52
2024/01/25 07:17:25;;;;;;;13.10;3.72;;;15.60;57.90;;;;;;5149922;27;44762;-52
2024/01/25 07:19:52;;;;;;;19.85;4.35;;;15.60;58.00;;;;;;5152890;27;45318;-52
2024/01/25 07:22:18;;;;;;;11.68;3.65;;;15.60;57.90;;;;;;5149259;27;45854;-52
2024/01/25 07:24:45;;;;;;;14.43;3.80;;;15.60;57.70;;;;;;5150618;27;45276;-52
2024/01/25 07:27:12;;;;;;;17.80;4.35;;;15.60;57.60;;;;;;5151232;27;45499;-52
2024/01/25 07:29:39;;;;;;;11.73;3.67;;;15.60;57.70;;;;;;5151073;27;45197;-52
2024/01/25 07:32:07;;;;;;;14.85;4.15;;;15.60;57.60;;;;;;5149702;27;44683;-52
2024/01/25 07:34:34;;;;;;;12.30;3.40;;;15.60;57.40;;;;;;5150975;27;47571;-52
2024/01/25 07:37:01;;;;;;;17.35;3.67;;;15.60;57.00;;;;;;5150204;27;45141;-52
2024/01/25 07:39:27;;;;;;;14.98;3.67;;;15.60;57.50;;;;;;5146598;27;45137;-52
2024/01/25 07:41:54;;;;;;;13.30;3.83;;;15.60;58.10;;;;;;5154129;27;44703;-52
2024/01/25 07:44:21;;;;;;;15.75;3.65;;;15.60;58.20;;;;;;5152703;27;47466;-52
2024/01/25 07:46:48;;;;;;;11.77;3.75;;;15.60;58.40;;;;;;5148931;27;45413;-52
2024/01/25 07:49:16;;;;;;;10.07;3.03;;;15.60;58.60;;;;;;5151475;27;45380;-52
2024/01/25 07:51:42;;;;;;;12.95;3.72;;;15.70;59.00;;;;;;5147279;27;45283;-52
2024/01/25 07:54:09;;;;;;;16.85;4.30;;;15.70;59.20;;;;;;5149475;27;46321;-52
2024/01/25 07:56:36;;;;;;;12.10;3.40;;;15.70;59.60;;;;;;5150830;27;45247;-52
2024/01/25 07:59:03;;;;;;;10.20;3.42;;;15.70;59.70;;;;;;5151690;27;45208;-52
2024/01/25 08:01:30;;;;;;;15.45;3.25;;;15.70;60.00;;;;;;5149713;27;45177;-52
2024/01/25 08:03:56;;;;;;;12.68;3.97;;;15.70;60.00;;;;;;5150580;27;48089;-52
2024/01/25 08:06:26;;;;;;;12.82;3.55;;;15.70;60.20;;;;;;5150620;27;45214;-52
2024/01/25 08:08:52;;;;;;;14.07;3.50;;;15.70;60.30;;;;;;5149279;27;45396;-52
2024/01/25 08:11:20;;;;;;;10.52;3.13;;;15.70;60.30;;;;;;5151148;27;45227;-52
2024/01/25 08:13:47;;;;;;;12.48;3.60;;;15.70;60.00;;;;;;5151598;27;46572;-52
2024/01/25 08:16:18;;;;;;;15.10;3.88;;;15.80;60.10;;;;;;5148997;27;44636;-52
2024/01/25 08:18:45;;;;;;;13.20;4.10;;;15.80;60.00;;;;;;5149728;27;45125;-52
2024/01/25 08:21:13;;;;;;;14.40;3.70;;;15.80;60.10;;;;;;5150982;27;44721;-52
2024/01/25 08:23:41;;;;;;;10.50;3.10;;;15.90;60.20;;;;;;5150076;27;46355;-52
2024/01/25 08:26:09;;;;;;;14.40;3.10;;;15.90;60.30;;;;;;5150195;27;45312;-52
2024/01/25 08:28:36;;;;;;;15.93;3.75;;;15.90;60.30;;;;;;5150785;27;45131;-52
2024/01/25 08:31:03;;;;;;;17.02;3.38;;;15.90;60.40;;;;;;5151361;27;45108;-52
2024/01/25 08:33:29;;;;;;;11.63;3.33;;;15.90;60.40;;;;;;5148910;27;45462;-52
2024/01/25 08:35:56;;;;;;;14.93;3.63;;;15.90;60.50;;;;;;5151124;27;45090;-52
2024/01/25 08:38:23;;;;;;;13.60;3.65;;;15.90;60.50;;;;;;5148922;27;45439;-52
2024/01/25 08:40:51;;;;;;;12.32;3.17;;;15.90;60.60;;;;;;5148436;27;45366;-52
2024/01/25 08:43:18;;;;;;;10.20;2.88;;;15.90;60.70;;;;;;5150248;27;47560;-52
2024/01/25 08:45:45;;;;;;;9.30;2.67;;;15.90;60.70;;;;;;5149384;27;45214;-52
2024/01/25 08:48:13;;;;;;;10.02;3.28;;;15.90;60.80;;;;;;5149779;27;45427;-52
2024/01/25 08:50:39;;;;;;;12.27;3.35;;;15.90;60.80;;;;;;5152286;27;45372;-52
2024/01/25 08:53:06;;;;;;;12.77;3.40;;;15.90;61.00;;;;;;5155270;27;45423;-52
2024/01/25 08:55:33;;;;;;;12.07;2.95;;;15.90;61.20;;;;;;5150247;27;44645;-52
2024/01/25 08:58:01;;;;;;;13.55;3.58;;;15.90;61.20;;;;;;5157783;27;45239;-52
2024/01/25 09:00:28;;;;;;;13.20;3.47;;;15.90;61.50;;;;;;5155472;27;45204;-52
2024/01/25 09:02:55;;;;;;;13.65;3.63;;;15.90;61.50;;;;;;5156538;27;46517;-52
2024/01/25 09:05:21;;;;;;;12.50;3.63;;;15.90;61.80;;;;;;5156937;27;45105;-52
2024/01/25 09:07:50;;;;;;;13.05;3.13;;;15.80;61.90;;;;;;5157506;27;45198;-52
2024/01/25 09:10:17;;;;;;;11.52;3.42;;;15.90;61.80;;;;;;5156782;27;45471;-52
2024/01/25 09:12:44;;;;;;;10.40;2.92;;;15.90;61.90;;;;;;5160494;27;47414;-52
2024/01/25 09:15:12;;;;;;;9.95;3.28;;;15.80;61.90;;;;;;5156208;27;45112;-52
2024/01/25 09:17:39;;;;;;;10.95;3.28;;;15.90;61.90;;;;;;5160388;27;45278;-52
2024/01/25 09:20:07;;;;;;;10.27;3.33;;;15.90;61.90;;;;;;5158668;27;45269;-52
2024/01/25 09:22:34;;;;;;;11.80;3.17;;;15.90;62.00;;;;;;5156625;27;45201;-52
2024/01/25 09:25:01;;;;;;;11.43;3.50;;;15.90;61.90;;;;;;5158000;27;45249;-52
2024/01/25 09:27:28;;;;;;;8.18;2.83;;;15.90;61.80;;;;;;5159472;27;45175;-52
2024/01/25 09:29:55;;;;;;;15.00;3.45;;;15.90;62.10;;;;;;5155097;27;45161;-52
2024/01/25 09:32:23;;;;;;;12.57;3.15;;;16.00;61.90;;;;;;5156809;27;45298;-52
2024/01/25 09:34:49;;;;;;;13.30;3.38;;;16.00;62.00;;;;;;5160560;27;45149;-52
2024/01/25 09:37:17;;;;;;;10.85;3.05;;;16.00;62.90;;;;;;5160275;27;45161;-52
2024/01/25 09:39:44;;;;;;;7.72;3.00;;;16.00;62.00;;;;;;5154292;27;45105;-52
2024/01/25 09:42:12;;;;;;;15.23;3.60;;;16.00;61.70;;;;;;5159757;27;46339;-52
2024/01/25 09:44:39;;;;;;;13.45;3.20;;;16.00;61.90;;;;;;5160546;27;45421;-52
2024/01/25 09:47:07;;;;;;;14.90;3.40;;;16.00;61.80;;;;;;5155392;27;45170;-52
2024/01/25 09:49:35;;;;;;;9.77;2.88;;;16.00;61.90;;;;;;5157058;27;45307;-52
2024/01/25 09:52:03;;;;;;;11.18;3.13;;;16.00;61.90;;;;;;5157779;27;46981;-52
2024/01/25 09:54:33;;;;;;;12.57;2.97;;;16.00;61.90;;;;;;5156275;27;44678;-52
2024/01/25 09:57:01;;;;;;;13.52;3.13;;;15.90;62.10;;;;;;5157606;27;45411;-52
2024/01/25 09:59:29;;;;;;;10.10;2.72;;;15.90;62.10;;;;;;5156821;27;45351;-52
2024/01/25 10:01:57;;;;;;;12.90;3.25;;;15.90;62.10;;;;;;5157770;27;46353;-52
2024/01/25 10:04:24;;;;;;;11.20;2.75;;;15.90;62.40;;;;;;5160162;27;45255;-52
2024/01/25 10:06:56;;;;;;;14.15;3.42;;;15.90;62.70;;;;;;5155325;27;44731;-52
2024/01/25 10:09:23;;;;;;;14.35;3.92;;;15.90;62.60;;;;;;5151421;27;45086;-52
2024/01/25 10:11:50;;;;;;;10.32;3.30;;;15.90;62.60;;;;;;5151553;27;46669;-52
2024/01/25 10:14:17;;;;;;;13.00;3.20;;;15.90;63.00;;;;;;5152972;27;45307;-52
2024/01/25 10:16:43;;;;;;;10.27;2.83;;;15.90;63.10;;;;;;5154977;27;45223;-52
2024/01/25 10:19:10;;;;;;;13.45;3.30;;;15.90;62.80;;;;;;5153174;27;45225;-52
2024/01/25 10:21:37;;;;;;;9.20;2.90;;;16.00;63.10;;;;;;5153223;27;46304;-52
2024/01/25 10:24:06;;;;;;;14.75;3.40;;;16.00;63.10;;;;;;5149751;27;45330;-52
2024/01/25 10:26:35;;;;;;;14.02;3.35;;;16.00;62.90;;;;;;5152205;27;45278;-52
2024/01/25 10:29:02;;;;;;;12.73;3.85;;;16.00;62.80;;;;;;5154628;27;45535;-52
2024/01/25 10:31:30;;;;;;;11.73;3.63;;;16.00;62.70;;;;;;5155184;27;47457;-52
2024/01/25 10:33:57;;;;;;;13.85;3.47;;;16.00;62.60;;;;;;5154662;27;45237;-52
2024/01/25 10:36:24;;;;;;;11.13;3.53;;;16.00;63.50;;;;;;5153012;27;45255;-52
2024/01/25 10:38:53;;;;;;;15.15;4.28;;;16.10;62.70;;;;;;5155392;27;45236;-52
2024/01/25 10:41:24;;;;;;;15.40;4.55;;;16.10;62.60;;;;;;5150979;27;46243;-52
2024/01/25 10:43:51;;;;;;;13.18;4.10;;;16.00;62.40;;;;;;5154359;27;44614;-52
2024/01/25 10:46:17;;;;;;;15.30;4.88;;;16.00;62.40;;;;;;5151592;27;45117;-52
2024/01/25 10:48:44;;;;;;;13.25;4.40;;;16.00;62.40;;;;;;5151915;27;45333;-52
2024/01/25 10:51:13;;;;;;;13.95;4.53;;;16.00;62.40;;;;;;5155311;27;46576;-52
2024/01/25 10:53:40;;;;;;;18.08;4.75;;;16.00;62.60;;;;;;5154584;27;45156;-52
2024/01/25 10:56:08;;;;;;;13.52;4.45;;;16.00;62.80;;;;;;5153919;27;44667;-52
2024/01/25 10:58:36;;;;;;;12.68;4.50;;;16.00;62.80;;;;;;5154075;27;45347;-52
2024/01/25 11:01:04;;;;;;;13.52;4.72;;;16.00;62.80;;;;;;5150802;27;45540;-52
2024/01/25 11:03:31;;;;;;;15.32;5.43;;;16.00;62.90;;;;;;5152428;27;45257;-52
2024/01/25 11:06:07;;;;;;;14.90;5.40;;;16.00;63.10;;;;;;5152046;27;45222;-52
2024/01/25 11:08:34;;;;;;;10.90;4.55;;;15.90;63.10;;;;;;5153193;27;45149;-52
2024/01/25 11:11:01;;;;;;;13.55;4.20;;;15.90;63.30;;;;;;5155107;27;45211;-52
2024/01/25 11:13:29;;;;;;;11.95;4.80;;;16.00;63.50;;;;;;5150715;27;45636;-52
2024/01/25 11:15:57;;;;;;;16.55;4.93;;;16.00;63.50;;;;;;5151658;27;45278;-52
2024/01/25 11:18:26;;;;;;;14.25;4.95;;;16.00;63.20;;;;;;5151835;27;45253;-52
2024/01/25 11:20:53;;;;;;;10.73;4.10;;;16.00;62.90;;;;;;5151382;27;45432;-52
2024/01/25 11:23:20;;;;;;;12.18;4.72;;;16.00;63.00;;;;;;5150127;27;45257;-52
2024/01/25 11:25:48;;;;;;;11.70;4.72;;;16.00;62.90;;;;;;5154315;27;45287;-52
2024/01/25 11:28:16;;;;;;;12.45;4.40;;;16.10;63.30;;;;;;5152442;27;45241;-52
2024/01/25 11:30:43;;;;;;;15.73;4.45;;;16.10;63.30;;;;;;5151082;27;45336;-52
2024/01/25 11:33:13;;;;;;;12.85;4.82;;;16.10;63.30;;;;;;5154264;27;44934;-52
2024/01/25 11:35:41;;;;;;;13.32;4.75;;;16.10;63.30;;;;;;5150905;27;45318;-52
2024/01/25 11:38:08;;;;;;;11.07;4.10;;;16.10;63.20;;;;;;5152374;27;45422;-52
2024/01/25 11:40:35;;;;;;;13.15;4.40;;;16.10;63.40;;;;;;5149320;27;47886;-52
2024/01/25 11:43:03;;;;;;;14.40;5.07;;;16.10;63.70;;;;;;5154038;27;45259;-52
2024/01/25 11:45:29;;;;;;;11.65;4.63;;;16.00;63.80;;;;;;5151171;27;45352;-52
2024/01/25 11:47:56;;;;;;;16.25;4.60;;;16.00;63.70;;;;;;5152274;27;45161;-52
2024/01/25 11:50:24;;;;;;;16.42;5.30;;;16.00;64.00;;;;;;5151291;27;46528;-52
2024/01/25 11:52:51;;;;;;;11.73;4.45;;;16.00;65.10;;;;;;5150415;27;45204;-52
2024/01/25 11:55:18;;;;;;;11.55;4.03;;;16.00;64.20;;;;;;5150250;27;45203;-52
2024/01/25 11:57:45;;;;;;;15.65;5.32;;;16.00;64.40;;;;;;5150374;27;45147;-52
2024/01/25 12:00:15;;;;;;;14.13;4.22;;;16.00;64.50;;;;;;5155293;27;45274;-52
2024/01/25 12:02:43;;;;;;;13.98;4.60;;;16.00;64.60;;;;;;5151155;27;45211;-52
2024/01/25 12:05:11;;;;;;;10.68;4.47;;;16.00;64.70;;;;;;5148641;27;45387;-52
2024/01/25 12:07:40;;;;;;;15.95;4.57;;;16.00;65.00;;;;;;5151152;27;45014;-52
2024/01/25 12:10:09;;;;;;;11.05;4.38;;;16.00;65.10;;;;;;5151264;27;46397;-52
2024/01/25 12:12:37;;;;;;;12.18;4.55;;;16.00;64.80;;;;;;5150143;27;45188;-52
2024/01/25 12:15:07;;;;;;;15.18;5.32;;;16.10;65.00;;;;;;5151605;27;45141;-52
2024/01/25 12:17:36;;;;;;;12.18;4.32;;;16.10;65.00;;;;;;5152377;27;45235;-52
2024/01/25 12:20:04;;;;;;;14.90;4.97;;;16.20;65.10;;;;;;5150372;27;47598;-52
2024/01/25 12:22:34;;;;;;;15.43;4.57;;;16.20;65.00;;;;;;5144867;27;45179;-52
2024/01/25 12:25:02;;;;;;;13.82;4.45;;;16.20;64.70;;;;;;5148909;27;45225;-52
2024/01/25 12:27:32;;;;;;;11.30;4.43;;;16.30;64.70;;;;;;5148872;27;45222;-52
2024/01/25 12:29:59;;;;;;;13.82;4.65;;;16.30;64.60;;;;;;5152542;27;45360;-52
2024/01/25 12:32:25;;;;;;;14.07;4.78;;;16.30;64.70;;;;;;5150028;27;45681;-52
2024/01/25 12:34:56;;;;;;;16.20;5.15;;;16.20;64.90;;;;;;5154299;27;45134;-52
2024/01/25 12:37:23;;;;;;;12.18;4.30;;;16.20;65.00;;;;;;5147300;27;45224;-52